Time;durP1;ratioP1;P1;durP2;ratioP2;P2;SDS_P1;SDS_P2;PMS_P1;PMS_P2;Temp;Humidity;BMP_temperature;BMP_pressure;BME280_temperature;BME280_humidity;BME280_pressure;Samples;Min_cycle;Max_cycle;Signal;HPM_P1;HPM_P2
2023/06/27 00:00:19;;;;;;;5.17;2.77;;;;;;;;;;5051275;28;20423;-46
2023/06/27 00:02:48;;;;;;;3.40;2.57;;;;;;;;;;5051401;28;20467;-45
2023/06/27 00:05:14;;;;;;;5.83;2.93;;;;;;;;;;5051585;28;20450;-45
2023/06/27 00:07:42;;;;;;;3.93;2.43;;;;;;;;;;5051310;28;20969;-45
2023/06/27 00:10:10;;;;;;;3.03;2.80;;;;;;;;;;5050444;28;20435;-45
2023/06/27 00:12:36;;;;;;;3.00;2.70;;;;;;;;;;5051377;28;20415;-45
2023/06/27 00:15:05;;;;;;;6.30;2.83;;;;;;;;;;5051061;28;20448;-45
2023/06/27 00:17:32;;;;;;;4.50;3.00;;;;;;;;;;5055255;28;20987;-45
2023/06/27 00:19:59;;;;;;;3.90;2.77;;;;;;;;;;5055204;28;20396;-45
2023/06/27 00:22:26;;;;;;;4.70;2.60;;;;;;;;;;5055311;28;20471;-45
2023/06/27 00:24:52;;;;;;;7.60;2.60;;;;;;;;;;5055339;28;20492;-45
2023/06/27 00:27:18;;;;;;;2.90;2.20;;;;;;;;;;5055264;28;20510;-45
2023/06/27 00:29:44;;;;;;;3.97;2.87;;;;;;;;;;5055143;28;20748;-45
2023/06/27 00:32:10;;;;;;;7.70;2.63;;;;;;;;;;5055134;28;20382;-45
2023/06/27 00:34:36;;;;;;;3.67;2.70;;;;;;;;;;5055112;28;20407;-45
2023/06/27 00:37:02;;;;;;;4.60;2.90;;;;;;;;;;5055140;28;20848;-45
2023/06/27 00:39:28;;;;;;;3.43;2.70;;;;;;;;;;5053995;28;20442;-45
2023/06/27 00:41:54;;;;;;;2.80;2.60;;;;;;;;;;5053936;28;20416;-45
2023/06/27 00:44:20;;;;;;;4.93;2.23;;;;;;;;;;5059470;28;20771;-46
2023/06/27 00:46:48;;;;;;;4.43;2.73;;;;;;;;;;5054718;28;20478;-46
2023/06/27 00:49:16;;;;;;;4.53;3.00;;;;;;;;;;5054871;28;20386;-45
2023/06/27 00:51:42;;;;;;;3.00;2.80;;;;;;;;;;5054732;28;20377;-45
2023/06/27 00:54:09;;;;;;;3.70;2.70;;;;;;;;;;5054948;28;20903;-45
2023/06/27 00:56:35;;;;;;;10.10;2.80;;;;;;;;;;5054605;28;20412;-45
2023/06/27 00:59:02;;;;;;;16.93;2.77;;;;;;;;;;5054534;28;20468;-45
2023/06/27 01:01:31;;;;;;;3.30;3.00;;;;;;;;;;5054042;28;20470;-45
2023/06/27 01:03:58;;;;;;;2.60;2.40;;;;;;;;;;5054022;28;20723;-45
2023/06/27 01:06:27;;;;;;;2.93;2.73;;;;;;;;;;5053847;28;20479;-45
2023/06/27 01:09:20;;;;;;;3.57;2.90;;;;;;;;;;5053624;28;20450;-45
2023/06/27 01:11:48;;;;;;;3.63;3.13;;;;;;;;;;5042914;28;20489;-45
2023/06/27 01:14:16;;;;;;;3.00;2.70;;;;;;;;;;5054366;28;20474;-45
2023/06/27 01:16:44;;;;;;;4.83;2.80;;;;;;;;;;5054294;28;20407;-46
2023/06/27 01:19:12;;;;;;;3.93;3.37;;;;;;;;;;5054895;28;20394;-46
2023/06/27 01:21:39;;;;;;;3.13;2.93;;;;;;;;;;5050077;28;20498;-46
2023/06/27 01:24:07;;;;;;;3.93;2.80;;;;;;;;;;5054083;28;20394;-45
2023/06/27 01:26:33;;;;;;;3.97;3.10;;;;;;;;;;5052813;28;20471;-45
2023/06/27 01:28:59;;;;;;;5.07;2.60;;;;;;;;;;5054083;28;20412;-45
2023/06/27 01:31:31;;;;;;;6.00;3.10;;;;;;;;;;5053994;28;20933;-45
2023/06/27 01:34:04;;;;;;;5.83;2.93;;;;;;;;;;5054128;28;20893;-45
2023/06/27 01:36:39;;;;;;;3.70;3.43;;;;;;;;;;5053954;28;20502;-45
2023/06/27 01:39:10;;;;;;;3.20;2.90;;;;;;;;;;5049659;28;20410;-45
2023/06/27 01:41:41;;;;;;;4.13;3.33;;;;;;;;;;5052645;28;20397;-46
2023/06/27 01:44:07;;;;;;;3.30;3.00;;;;;;;;;;5053821;28;20386;-45
2023/06/27 01:46:33;;;;;;;3.80;3.20;;;;;;;;;;5035758;28;20472;-45
2023/06/27 01:49:00;;;;;;;5.23;3.90;;;;;;;;;;5053762;28;20528;-47
2023/06/27 01:51:26;;;;;;;4.23;3.13;;;;;;;;;;5053497;28;20403;-45
2023/06/27 01:53:52;;;;;;;3.80;2.97;;;;;;;;;;5053297;28;20413;-46
2023/06/27 01:56:18;;;;;;;3.57;2.93;;;;;;;;;;5053848;28;20510;-46
2023/06/27 01:58:44;;;;;;;2.80;2.60;;;;;;;;;;5053687;28;20422;-46
2023/06/27 02:01:10;;;;;;;3.40;2.90;;;;;;;;;;5053415;28;20417;-45
2023/06/27 02:03:36;;;;;;;5.17;3.33;;;;;;;;;;5053507;28;20380;-45
2023/06/27 02:06:02;;;;;;;3.50;2.77;;;;;;;;;;5053230;28;20542;-45
2023/06/27 02:08:28;;;;;;;6.70;3.00;;;;;;;;;;5053632;28;20522;-46
2023/06/27 02:10:54;;;;;;;4.20;2.90;;;;;;;;;;5052357;28;20425;-45
2023/06/27 02:13:20;;;;;;;4.20;2.90;;;;;;;;;;5053557;28;20872;-45
2023/06/27 02:15:46;;;;;;;5.17;3.00;;;;;;;;;;5053227;28;20892;-45
2023/06/27 02:18:12;;;;;;;3.63;2.67;;;;;;;;;;5053310;28;20966;-45
2023/06/27 02:20:38;;;;;;;3.17;2.87;;;;;;;;;;5052927;28;20865;-45
2023/06/27 02:23:03;;;;;;;3.27;2.97;;;;;;;;;;5053280;28;20762;-45
2023/06/27 02:25:29;;;;;;;3.10;2.90;;;;;;;;;;5053084;28;20505;-45
2023/06/27 02:27:55;;;;;;;7.40;3.10;;;;;;;;;;5053035;28;20399;-45
2023/06/27 02:30:21;;;;;;;6.10;2.90;;;;;;;;;;5043301;28;20418;-46
2023/06/27 02:32:47;;;;;;;4.90;3.10;;;;;;;;;;5053173;28;20406;-46
2023/06/27 02:35:15;;;;;;;3.27;2.90;;;;;;;;;;5052895;28;20395;-45
2023/06/27 02:37:41;;;;;;;3.07;2.87;;;;;;;;;;5052534;28;20778;-45
2023/06/27 02:40:08;;;;;;;4.17;3.73;;;;;;;;;;5052699;28;20452;-45
2023/06/27 02:42:34;;;;;;;3.73;3.20;;;;;;;;;;5052058;28;20488;-46
2023/06/27 02:45:00;;;;;;;5.97;3.10;;;;;;;;;;5052709;28;20421;-46
2023/06/27 02:47:26;;;;;;;4.17;3.77;;;;;;;;;;5052690;28;20437;-45
2023/06/27 02:49:52;;;;;;;3.80;3.37;;;;;;;;;;5051850;28;20432;-47
2023/06/27 02:52:18;;;;;;;8.67;3.90;;;;;;;;;;5052983;28;20465;-45
2023/06/27 02:54:44;;;;;;;4.47;3.33;;;;;;;;;;5052619;28;20442;-45
2023/06/27 02:57:10;;;;;;;3.23;2.93;;;;;;;;;;5052546;28;20431;-45
2023/06/27 02:59:36;;;;;;;4.67;3.43;;;;;;;;;;5052287;28;20385;-45
2023/06/27 03:02:02;;;;;;;5.73;3.40;;;;;;;;;;5052387;28;20387;-45
2023/06/27 03:04:28;;;;;;;3.73;3.20;;;;;;;;;;5052367;28;20435;-46
2023/06/27 03:06:54;;;;;;;3.47;3.13;;;;;;;;;;5052142;28;20443;-46
2023/06/27 03:09:20;;;;;;;13.53;3.77;;;;;;;;;;5052371;28;20760;-45
2023/06/27 03:11:46;;;;;;;4.47;3.40;;;;;;;;;;5046128;28;20408;-45
2023/06/27 03:14:12;;;;;;;3.60;3.30;;;;;;;;;;5052221;28;20899;-45
2023/06/27 03:16:38;;;;;;;3.60;2.83;;;;;;;;;;5052129;28;20436;-45
2023/06/27 03:19:04;;;;;;;3.43;3.13;;;;;;;;;;5052046;28;20446;-46
2023/06/27 03:21:30;;;;;;;5.50;3.13;;;;;;;;;;5052168;28;20936;-45
2023/06/27 03:23:56;;;;;;;4.63;3.00;;;;;;;;;;5046361;28;20722;-45
2023/06/27 03:26:27;;;;;;;4.63;3.53;;;;;;;;;;5052075;28;20849;-46
2023/06/27 03:28:53;;;;;;;3.83;3.30;;;;;;;;;;5055868;28;20408;-46
2023/06/27 03:31:19;;;;;;;6.40;3.50;;;;;;;;;;5054223;28;20938;-45
2023/06/27 03:33:46;;;;;;;4.73;3.40;;;;;;;;;;5051881;28;20398;-45
2023/06/27 03:36:12;;;;;;;7.13;3.33;;;;;;;;;;5051940;28;20802;-46
2023/06/27 03:38:38;;;;;;;4.43;3.30;;;;;;;;;;5051909;28;20402;-45
2023/06/27 03:41:04;;;;;;;6.43;3.13;;;;;;;;;;5050695;28;20422;-46
2023/06/27 03:43:30;;;;;;;5.47;3.37;;;;;;;;;;5051661;28;20878;-46
2023/06/27 03:45:56;;;;;;;3.50;3.20;;;;;;;;;;5051669;28;20796;-46
2023/06/27 03:48:22;;;;;;;8.37;3.87;;;;;;;;;;5051580;28;20758;-45
2023/06/27 03:50:47;;;;;;;5.40;3.27;;;;;;;;;;5050875;28;20750;-45
2023/06/27 03:53:13;;;;;;;8.80;4.10;;;;;;;;;;5051760;28;20419;-45
2023/06/27 03:55:40;;;;;;;3.80;2.87;;;;;;;;;;5051511;28;20418;-46
2023/06/27 03:58:07;;;;;;;13.93;3.53;;;;;;;;;;5051559;28;20386;-46
2023/06/27 04:00:33;;;;;;;4.40;3.13;;;;;;;;;;5051390;28;20825;-46
2023/06/27 04:02:59;;;;;;;5.00;3.10;;;;;;;;;;5051471;28;20804;-45
2023/06/27 04:05:25;;;;;;;3.57;3.30;;;;;;;;;;5051371;28;20471;-45
2023/06/27 04:07:51;;;;;;;5.83;3.03;;;;;;;;;;5051319;28;20440;-46
2023/06/27 04:10:18;;;;;;;4.97;2.93;;;;;;;;;;5050530;28;20427;-44
2023/06/27 04:12:44;;;;;;;7.60;3.00;;;;;;;;;;5051583;28;20808;-46
2023/06/27 04:15:10;;;;;;;5.93;3.10;;;;;;;;;;5051992;28;20920;-46
2023/06/27 04:17:36;;;;;;;5.63;3.60;;;;;;;;;;5051181;28;20482;-46
2023/06/27 04:20:02;;;;;;;3.73;3.40;;;;;;;;;;5051207;28;20388;-45
2023/06/27 04:22:28;;;;;;;4.30;3.53;;;;;;;;;;5051373;28;20486;-45
2023/06/27 04:24:54;;;;;;;3.77;3.40;;;;;;;;;;5051292;28;20464;-45
2023/06/27 04:27:21;;;;;;;5.30;2.90;;;;;;;;;;5051219;28;20811;-45
2023/06/27 04:29:47;;;;;;;10.07;3.10;;;;;;;;;;5051127;28;20415;-45
2023/06/27 04:32:13;;;;;;;7.97;3.87;;;;;;;;;;5050197;28;20406;-46
2023/06/27 04:34:39;;;;;;;3.70;3.33;;;;;;;;;;5051226;28;20773;-45
2023/06/27 04:37:05;;;;;;;6.80;3.50;;;;;;;;;;5051209;28;20773;-45
2023/06/27 04:39:32;;;;;;;5.43;3.53;;;;;;;;;;5051066;28;20420;-46
2023/06/27 04:41:58;;;;;;;5.20;3.40;;;;;;;;;;5051063;28;20921;-45
2023/06/27 04:44:24;;;;;;;7.50;3.53;;;;;;;;;;5051066;28;20394;-45
2023/06/27 04:46:50;;;;;;;6.10;3.90;;;;;;;;;;5051101;28;20478;-46
2023/06/27 04:49:16;;;;;;;8.60;3.20;;;;;;;;;;5051119;28;20884;-45
2023/06/27 04:51:42;;;;;;;5.00;3.50;;;;;;;;;;5051036;28;20379;-45
2023/06/27 04:54:08;;;;;;;5.30;3.50;;;;;;;;;;5051037;28;21092;-46
2023/06/27 04:56:34;;;;;;;4.30;3.67;;;;;;;;;;5050971;28;20439;-45
2023/06/27 04:59:00;;;;;;;7.50;4.07;;;;;;;;;;5050866;28;20413;-46
2023/06/27 05:01:26;;;;;;;10.03;4.00;;;;;;;;;;5051192;28;20412;-46
2023/06/27 05:03:53;;;;;;;6.07;3.80;;;;;;;;;;5054793;28;20438;-46
2023/06/27 05:06:19;;;;;;;5.67;3.43;;;;;;;;;;5056650;28;20466;-46
2023/06/27 05:08:45;;;;;;;4.13;3.60;;;;;;;;;;5054726;28;20771;-46
2023/06/27 05:11:11;;;;;;;6.83;3.30;;;;;;;;;;5054457;28;20379;-47
2023/06/27 05:13:37;;;;;;;13.40;4.07;;;;;;;;;;5053498;28;20948;-46
2023/06/27 05:16:03;;;;;;;4.90;3.60;;;;;;;;;;5054602;28;20440;-46
2023/06/27 05:18:29;;;;;;;7.03;4.27;;;;;;;;;;5054395;28;20486;-45
2023/06/27 05:20:55;;;;;;;6.07;3.50;;;;;;;;;;5054289;28;20388;-45
2023/06/27 05:23:21;;;;;;;7.90;3.50;;;;;;;;;;5054190;28;20811;-46
2023/06/27 05:25:48;;;;;;;10.20;3.77;;;;;;;;;;5054112;28;20457;-45
2023/06/27 05:28:14;;;;;;;3.87;3.57;;;;;;;;;;5054284;28;20384;-46
2023/06/27 05:30:40;;;;;;;5.03;3.73;;;;;;;;;;5054212;28;20433;-46
2023/06/27 05:33:06;;;;;;;5.03;3.63;;;;;;;;;;5053354;28;20959;-45
2023/06/27 05:35:32;;;;;;;6.53;3.30;;;;;;;;;;5054272;28;20755;-46
2023/06/27 05:37:58;;;;;;;6.40;3.30;;;;;;;;;;5054169;28;20432;-45
2023/06/27 05:40:24;;;;;;;6.87;4.47;;;;;;;;;;5053628;28;20859;-45
2023/06/27 05:42:50;;;;;;;5.80;3.80;;;;;;;;;;5054037;28;20461;-45
2023/06/27 05:45:16;;;;;;;12.53;3.97;;;;;;;;;;5053857;28;20471;-45
2023/06/27 05:47:43;;;;;;;7.70;4.20;;;;;;;;;;5053908;28;20432;-45
2023/06/27 05:50:09;;;;;;;8.53;4.00;;;;;;;;;;5053715;28;20383;-46
2023/06/27 05:52:35;;;;;;;12.13;4.40;;;;;;;;;;5053975;28;20376;-46
2023/06/27 05:55:01;;;;;;;7.13;3.97;;;;;;;;;;5053639;28;20428;-45
2023/06/27 05:57:27;;;;;;;8.77;3.87;;;;;;;;;;5053588;28;20439;-45
2023/06/27 05:59:53;;;;;;;9.90;4.30;;;;;;;;;;5053481;28;20420;-45
2023/06/27 06:02:19;;;;;;;7.53;3.93;;;;;;;;;;5052661;28;20428;-45
2023/06/27 06:04:45;;;;;;;8.87;3.80;;;;;;;;;;5053772;28;20402;-47
2023/06/27 06:07:11;;;;;;;10.60;4.30;;;;;;;;;;5053447;28;20465;-46
2023/06/27 06:09:37;;;;;;;7.43;3.50;;;;;;;;;;5053469;28;20406;-45
2023/06/27 06:12:03;;;;;;;8.63;3.23;;;;;;;;;;5053473;28;20390;-46
2023/06/27 06:14:29;;;;;;;11.57;4.47;;;;;;;;;;5052638;28;20392;-46
2023/06/27 06:16:55;;;;;;;8.13;3.93;;;;;;;;;;5056172;28;20511;-45
2023/06/27 06:19:21;;;;;;;8.87;3.60;;;;;;;;;;5052858;28;20397;-46
2023/06/27 06:21:47;;;;;;;10.63;4.07;;;;;;;;;;5052742;28;20381;-46
2023/06/27 06:24:16;;;;;;;7.80;3.93;;;;;;;;;;5052550;28;20419;-45
2023/06/27 06:26:42;;;;;;;7.93;4.33;;;;;;;;;;5052919;28;20463;-46
2023/06/27 06:29:13;;;;;;;8.20;3.93;;;;;;;;;;5053331;28;20384;-47
2023/06/27 06:31:40;;;;;;;13.40;4.70;;;;;;;;;;5051110;28;20419;-46
2023/06/27 06:34:06;;;;;;;5.33;3.30;;;;;;;;;;5053054;28;20391;-45
2023/06/27 06:36:32;;;;;;;8.10;4.17;;;;;;;;;;5053030;28;20404;-46
2023/06/27 06:39:01;;;;;;;3.77;3.47;;;;;;;;;;5052938;28;20491;-45
2023/06/27 06:41:27;;;;;;;7.57;3.60;;;;;;;;;;5052646;28;20440;-46
2023/06/27 06:43:53;;;;;;;8.43;3.80;;;;;;;;;;5052926;28;20914;-46
2023/06/27 06:46:19;;;;;;;7.33;3.70;;;;;;;;;;5052650;28;21445;-45
2023/06/27 06:48:45;;;;;;;5.37;3.97;;;;;;;;;;5052966;28;20409;-45
2023/06/27 06:51:11;;;;;;;8.93;4.40;;;;;;;;;;5052560;28;20380;-45
2023/06/27 06:53:37;;;;;;;8.90;3.60;;;;;;;;;;5052529;28;20429;-45
2023/06/27 06:56:03;;;;;;;8.13;4.37;;;;;;;;;;5052693;28;20434;-45
2023/06/27 06:58:29;;;;;;;11.77;4.63;;;;;;;;;;5052607;28;21113;-45
2023/06/27 07:00:55;;;;;;;10.20;4.47;;;;;;;;;;5051546;28;20421;-45
2023/06/27 07:03:21;;;;;;;11.87;4.57;;;;;;;;;;5052582;28;20413;-45
2023/06/27 07:05:47;;;;;;;10.67;5.33;;;;;;;;;;5052168;28;20981;-45
2023/06/27 07:08:13;;;;;;;6.50;4.43;;;;;;;;;;5052424;28;20752;-45
2023/06/27 07:10:39;;;;;;;8.30;5.00;;;;;;;;;;5052212;28;20812;-47
2023/06/27 07:13:05;;;;;;;7.37;4.27;;;;;;;;;;5052399;28;20472;-46
2023/06/27 07:15:31;;;;;;;5.93;4.33;;;;;;;;;;5052244;28;20410;-45
2023/06/27 07:17:57;;;;;;;10.47;5.20;;;;;;;;;;5052226;28;20429;-45
2023/06/27 07:20:23;;;;;;;7.83;5.10;;;;;;;;;;5051929;28;20927;-45
2023/06/27 07:22:49;;;;;;;5.00;4.10;;;;;;;;;;5052143;28;20458;-46
2023/06/27 07:25:16;;;;;;;8.67;5.83;;;;;;;;;;5052007;28;20477;-45
2023/06/27 07:27:45;;;;;;;15.57;4.80;;;;;;;;;;5052093;28;20452;-44
2023/06/27 07:30:12;;;;;;;11.73;5.00;;;;;;;;;;5050910;28;20551;-46
2023/06/27 07:32:38;;;;;;;8.80;4.60;;;;;;;;;;5052073;28;21034;-46
2023/06/27 07:35:04;;;;;;;8.77;5.13;;;;;;;;;;5051967;28;20414;-45
2023/06/27 07:37:30;;;;;;;8.80;3.80;;;;;;;;;;5051778;28;20430;-46
2023/06/27 07:39:57;;;;;;;13.20;4.80;;;;;;;;;;5051838;28;20426;-45
2023/06/27 07:42:23;;;;;;;9.33;4.50;;;;;;;;;;5051904;28;20604;-46
2023/06/27 07:44:49;;;;;;;7.80;4.60;;;;;;;;;;5051981;28;20406;-46
2023/06/27 07:47:15;;;;;;;13.40;4.83;;;;;;;;;;5051706;28;20473;-46
2023/06/27 07:49:41;;;;;;;8.30;4.07;;;;;;;;;;5051560;28;20472;-45
2023/06/27 07:52:07;;;;;;;15.43;5.87;;;;;;;;;;5051700;28;20433;-46
2023/06/27 07:54:34;;;;;;;17.07;6.03;;;;;;;;;;5051058;28;20728;-45
2023/06/27 07:57:00;;;;;;;13.73;5.20;;;;;;;;;;5051652;28;20470;-45
2023/06/27 07:59:26;;;;;;;7.43;4.40;;;;;;;;;;5051537;28;20438;-44
2023/06/27 08:01:52;;;;;;;13.50;4.30;;;;;;;;;;5048673;28;20432;-46
2023/06/27 08:04:18;;;;;;;7.30;3.90;;;;;;;;;;5051492;28;20416;-46
2023/06/27 08:06:44;;;;;;;7.33;4.47;;;;;;;;;;5051291;28;20467;-45
2023/06/27 08:09:10;;;;;;;7.60;4.30;;;;;;;;;;5051486;28;20413;-46
2023/06/27 08:11:36;;;;;;;14.53;4.83;;;;;;;;;;5051465;28;20438;-45
2023/06/27 08:14:02;;;;;;;10.53;4.80;;;;;;;;;;5051440;28;20501;-46
2023/06/27 08:16:28;;;;;;;12.93;4.93;;;;;;;;;;5051305;28;20483;-46
2023/06/27 08:18:54;;;;;;;13.50;4.90;;;;;;;;;;5051354;28;20448;-45
2023/06/27 08:21:20;;;;;;;11.57;3.90;;;;;;;;;;5057743;28;20413;-46
2023/06/27 08:23:46;;;;;;;8.43;4.13;;;;;;;;;;5043572;28;20444;-46
2023/06/27 08:26:15;;;;;;;8.83;4.10;;;;;;;;;;5049103;28;20468;-46
2023/06/27 08:28:41;;;;;;;8.13;4.33;;;;;;;;;;5051409;28;20402;-45
2023/06/27 08:31:07;;;;;;;8.10;3.60;;;;;;;;;;5056327;28;20432;-45
2023/06/27 08:33:33;;;;;;;10.70;5.87;;;;;;;;;;5051786;28;20409;-46
2023/06/27 08:35:59;;;;;;;12.60;5.00;;;;;;;;;;5051858;28;20460;-46
2023/06/27 08:38:25;;;;;;;8.43;3.90;;;;;;;;;;5055259;28;20416;-45
2023/06/27 08:40:55;;;;;;;9.30;3.83;;;;;;;;;;5055199;28;20443;-46
2023/06/27 08:43:21;;;;;;;8.47;3.47;;;;;;;;;;5060602;28;20412;-46
2023/06/27 08:45:48;;;;;;;6.73;3.47;;;;;;;;;;5055004;28;20445;-46
2023/06/27 08:48:15;;;;;;;10.87;4.20;;;;;;;;;;5055020;28;20427;-46
2023/06/27 08:50:41;;;;;;;10.07;4.60;;;;;;;;;;5054693;28;20403;-46
2023/06/27 08:53:08;;;;;;;7.90;4.00;;;;;;;;;;5055271;28;20783;-46
2023/06/27 08:55:42;;;;;;;5.93;3.03;;;;;;;;;;5054771;28;20409;-46
2023/06/27 08:58:12;;;;;;;6.70;3.40;;;;;;;;;;5054888;28;20786;-45
2023/06/27 09:00:38;;;;;;;5.87;3.30;;;;;;;;;;5053744;28;20435;-46
2023/06/27 09:03:04;;;;;;;5.30;3.10;;;;;;;;;;5054907;28;20412;-48
2023/06/27 09:05:33;;;;;;;6.40;3.30;;;;;;;;;;5036940;28;20460;-46
2023/06/27 09:07:59;;;;;;;7.13;3.20;;;;;;;;;;5054771;28;20474;-47
2023/06/27 09:10:26;;;;;;;11.07;3.67;;;;;;;;;;5053341;28;20436;-45
2023/06/27 09:12:56;;;;;;;6.00;3.17;;;;;;;;;;5054691;28;20408;-46
2023/06/27 09:15:22;;;;;;;4.37;3.33;;;;;;;;;;5054409;28;20412;-46
2023/06/27 09:17:48;;;;;;;8.97;3.50;;;;;;;;;;5054469;28;20941;-45
2023/06/27 09:20:18;;;;;;;6.13;2.93;;;;;;;;;;5053998;28;20407;-45
2023/06/27 09:22:44;;;;;;;5.03;3.00;;;;;;;;;;5053400;28;20457;-47
2023/06/27 09:25:10;;;;;;;4.00;2.90;;;;;;;;;;5055486;28;20925;-47
2023/06/27 09:27:37;;;;;;;10.60;3.20;;;;;;;;;;5053966;28;20507;-46
2023/06/27 09:30:04;;;;;;;5.10;3.00;;;;;;;;;;5053151;28;20885;-45
2023/06/27 09:32:30;;;;;;;6.80;3.40;;;;;;;;;;5054093;28;20413;-45
2023/06/27 09:34:56;;;;;;;6.23;4.10;;;;;;;;;;5054202;28;20410;-46
2023/06/27 09:37:29;;;;;;;5.67;3.67;;;;;;;;;;5053463;28;20441;-45
2023/06/27 09:39:55;;;;;;;6.03;3.30;;;;;;;;;;5052620;28;20403;-45
2023/06/27 09:42:21;;;;;;;6.10;4.23;;;;;;;;;;5052308;28;20911;-46
2023/06/27 09:44:47;;;;;;;11.83;4.77;;;;;;;;;;5053027;28;20412;-46
2023/06/27 09:47:13;;;;;;;10.30;4.33;;;;;;;;;;5052151;28;20563;-45
2023/06/27 09:49:43;;;;;;;8.80;3.80;;;;;;;;;;5053165;28;20405;-45
2023/06/27 09:52:13;;;;;;;6.50;3.90;;;;;;;;;;5053660;28;20397;-45
2023/06/27 09:54:42;;;;;;;6.17;3.60;;;;;;;;;;5053862;28;20440;-45
2023/06/27 09:57:12;;;;;;;5.90;3.13;;;;;;;;;;5053837;28;20844;-46
2023/06/27 09:59:38;;;;;;;4.93;3.63;;;;;;;;;;5044446;28;20425;-45
2023/06/27 10:02:05;;;;;;;5.63;4.30;;;;;;;;;;5053826;28;20548;-46
2023/06/27 10:04:31;;;;;;;6.50;4.20;;;;;;;;;;5053556;28;20777;-46
2023/06/27 10:06:57;;;;;;;8.67;3.90;;;;;;;;;;5053412;28;21035;-45
2023/06/27 10:09:23;;;;;;;7.27;3.67;;;;;;;;;;5053608;28;20945;-46
2023/06/27 10:11:49;;;;;;;4.90;4.40;;;;;;;;;;5053601;28;20413;-46
2023/06/27 10:14:15;;;;;;;6.83;3.50;;;;;;;;;;5053916;28;20394;-42
2023/06/27 10:16:42;;;;;;;5.47;3.43;;;;;;;;;;5052363;28;20452;-42
2023/06/27 10:19:08;;;;;;;4.00;3.60;;;;;;;;;;5053085;28;20434;-42
2023/06/27 10:21:34;;;;;;;3.10;2.60;;;;;;;;;;5052943;28;20769;-43
2023/06/27 10:24:01;;;;;;;6.73;3.10;;;;;;;;;;5053259;28;20412;-42
2023/06/27 10:26:28;;;;;;;5.80;3.37;;;;;;;;;;5053079;28;20466;-45
2023/06/27 10:28:54;;;;;;;3.33;2.90;;;;;;;;;;5053222;28;20789;-42
2023/06/27 10:31:39;;;;;;;5.70;2.90;;;;;;;;;;5051969;28;20454;-42
2023/06/27 10:34:06;;;;;;;3.30;3.10;;;;;;;;;;5053104;28;20926;-48
2023/06/27 10:36:51;;;;;;;5.70;3.40;;;;;;;;;;5052931;28;20521;-49
2023/06/27 10:39:34;;;;;;;7.63;3.30;;;;;;;;;;5052952;28;20410;-42
2023/06/27 10:42:00;;;;;;;6.00;3.37;;;;;;;;;;5052792;28;20405;-42
2023/06/27 10:44:26;;;;;;;9.90;3.37;;;;;;;;;;5052847;28;20442;-42
2023/06/27 10:47:10;;;;;;;7.77;3.50;;;;;;;;;;5052799;28;20489;-42
2023/06/27 10:49:36;;;;;;;7.27;3.43;;;;;;;;;;5052753;28;20454;-44
2023/06/27 10:52:02;;;;;;;3.60;3.27;;;;;;;;;;5051940;28;20428;-42
2023/06/27 10:54:28;;;;;;;4.73;3.70;;;;;;;;;;5054075;28;20930;-42
2023/06/27 10:56:54;;;;;;;4.17;2.50;;;;;;;;;;5051658;28;20455;-46
2023/06/27 10:59:23;;;;;;;10.37;3.20;;;;;;;;;;5050360;28;20808;-42
2023/06/27 11:01:53;;;;;;;7.63;2.87;;;;;;;;;;5050483;28;20763;-42
2023/06/27 11:04:26;;;;;;;4.23;2.80;;;;;;;;;;5050947;28;20421;-44
2023/06/27 11:07:01;;;;;;;4.70;2.80;;;;;;;;;;5051765;28;21226;-42
2023/06/27 11:09:29;;;;;;;4.90;2.87;;;;;;;;;;5052437;28;20780;-42
2023/06/27 11:11:56;;;;;;;2.93;2.53;;;;;;;;;;5052361;28;20407;-43
2023/06/27 11:14:34;;;;;;;5.57;2.90;;;;;;;;;;5052272;28;20776;-42
2023/06/27 11:17:00;;;;;;;3.50;2.80;;;;;;;;;;5051352;28;20448;-42
2023/06/27 11:19:26;;;;;;;4.47;2.57;;;;;;;;;;5052109;28;20410;-46
2023/06/27 11:21:52;;;;;;;4.50;2.70;;;;;;;;;;5052146;28;20512;-42
2023/06/27 11:24:18;;;;;;;5.60;2.70;;;;;;;;;;5052192;28;20419;-42
2023/06/27 11:26:51;;;;;;;6.23;3.40;;;;;;;;;;5051973;28;20460;-42
2023/06/27 11:29:17;;;;;;;4.40;2.83;;;;;;;;;;5052028;28;20894;-42
2023/06/27 11:31:43;;;;;;;7.13;2.77;;;;;;;;;;5034889;28;20409;-42
2023/06/27 11:34:09;;;;;;;5.60;2.27;;;;;;;;;;5051893;28;20938;-42
2023/06/27 11:36:39;;;;;;;6.70;2.40;;;;;;;;;;5042348;28;20445;-42
2023/06/27 11:39:06;;;;;;;4.30;2.47;;;;;;;;;;5043254;28;20421;-46
2023/06/27 11:41:32;;;;;;;7.23;3.40;;;;;;;;;;5042655;28;20450;-42
2023/06/27 11:43:58;;;;;;;3.97;2.93;;;;;;;;;;5051850;28;20447;-42
2023/06/27 11:46:25;;;;;;;4.67;2.60;;;;;;;;;;5051734;28;20471;-42
2023/06/27 11:48:51;;;;;;;6.43;3.00;;;;;;;;;;5053922;28;20858;-42
2023/06/27 11:51:17;;;;;;;2.60;2.40;;;;;;;;;;5051749;28;20414;-48
2023/06/27 11:53:50;;;;;;;9.23;2.73;;;;;;;;;;5051406;28;20412;-43
2023/06/27 11:56:16;;;;;;;6.90;2.90;;;;;;;;;;5033175;28;20450;-48
2023/06/27 11:58:42;;;;;;;4.80;2.93;;;;;;;;;;5051468;28;20785;-48
2023/06/27 12:01:27;;;;;;;6.23;2.77;;;;;;;;;;5051405;28;20423;-42
2023/06/27 12:03:53;;;;;;;2.57;2.33;;;;;;;;;;5050824;28;20409;-43
2023/06/27 12:06:25;;;;;;;2.93;2.40;;;;;;;;;;5051293;28;20981;-43
2023/06/27 12:08:52;;;;;;;4.93;2.30;;;;;;;;;;5051669;28;20923;-48
2023/06/27 12:11:18;;;;;;;3.47;2.43;;;;;;;;;;5050576;28;20393;-42
2023/06/27 12:13:44;;;;;;;3.00;2.50;;;;;;;;;;5051449;28;20406;-46
2023/06/27 12:16:29;;;;;;;4.10;3.20;;;;;;;;;;5051543;28;20444;-46
2023/06/27 12:19:22;;;;;;;5.97;2.70;;;;;;;;;;5050571;28;20425;-42
2023/06/27 12:21:48;;;;;;;5.23;2.47;;;;;;;;;;5048439;28;20472;-42
2023/06/27 12:24:14;;;;;;;4.10;2.70;;;;;;;;;;5051393;28;20419;-42
2023/06/27 12:26:40;;;;;;;4.17;2.50;;;;;;;;;;5051337;28;20787;-42
2023/06/27 12:29:07;;;;;;;3.37;2.43;;;;;;;;;;5051520;28;20426;-42
2023/06/27 12:31:34;;;;;;;4.33;3.27;;;;;;;;;;5051219;28;20910;-45
2023/06/27 12:34:01;;;;;;;7.50;2.77;;;;;;;;;;5051378;28;20413;-42
2023/06/27 12:36:27;;;;;;;2.87;2.57;;;;;;;;;;5051360;28;20421;-42
2023/06/27 12:38:54;;;;;;;4.03;2.43;;;;;;;;;;5051129;28;20895;-42
2023/06/27 12:41:23;;;;;;;4.70;2.73;;;;;;;;;;5051042;28;20926;-47
2023/06/27 12:43:49;;;;;;;6.50;2.80;;;;;;;;;;5051261;28;20976;-43
2023/06/27 12:46:15;;;;;;;5.57;2.73;;;;;;;;;;5050186;28;20464;-42
2023/06/27 12:48:42;;;;;;;4.27;2.77;;;;;;;;;;5051416;28;20762;-42
2023/06/27 12:51:08;;;;;;;2.63;2.43;;;;;;;;;;5051067;28;20462;-42
2023/06/27 12:53:34;;;;;;;3.43;2.30;;;;;;;;;;5051167;28;20416;-42
2023/06/27 12:56:02;;;;;;;3.93;2.53;;;;;;;;;;5051120;28;20463;-42
2023/06/27 12:58:28;;;;;;;8.17;2.47;;;;;;;;;;5051308;28;20444;-42
2023/06/27 13:00:56;;;;;;;5.40;2.30;;;;;;;;;;5050955;28;20422;-42
2023/06/27 13:03:23;;;;;;;2.53;1.90;;;;;;;;;;5051133;28;20420;-42
2023/06/27 13:05:49;;;;;;;2.93;1.87;;;;;;;;;;5050716;28;20544;-42
2023/06/27 13:08:16;;;;;;;5.60;1.80;;;;;;;;;;5051056;28;20860;-43
2023/06/27 13:10:42;;;;;;;2.77;1.57;;;;;;;;;;5050750;28;20435;-43
2023/06/27 13:13:08;;;;;;;5.43;2.00;;;;;;;;;;5051002;28;20424;-46
2023/06/27 13:15:34;;;;;;;3.70;1.90;;;;;;;;;;5050084;28;20574;-48
2023/06/27 13:18:01;;;;;;;2.47;1.70;;;;;;;;;;5050795;28;20425;-43
2023/06/27 13:20:27;;;;;;;4.57;1.70;;;;;;;;;;5049385;28;20782;-43
2023/06/27 13:22:53;;;;;;;1.97;1.60;;;;;;;;;;5052787;28;20563;-48
2023/06/27 13:25:20;;;;;;;4.83;1.70;;;;;;;;;;5054160;28;20405;-48
2023/06/27 13:27:46;;;;;;;2.50;1.97;;;;;;;;;;5054322;28;20436;-42
2023/06/27 13:30:12;;;;;;;9.63;2.00;;;;;;;;;;5054112;28;20413;-42
2023/06/27 13:32:38;;;;;;;5.30;1.80;;;;;;;;;;5054226;28;20415;-43
2023/06/27 13:35:04;;;;;;;6.30;2.20;;;;;;;;;;5054011;28;20500;-44
2023/06/27 13:37:30;;;;;;;5.33;1.77;;;;;;;;;;5054137;28;20437;-46
2023/06/27 13:39:56;;;;;;;6.47;2.47;;;;;;;;;;5053802;28;20416;-47
2023/06/27 13:42:22;;;;;;;6.63;2.20;;;;;;;;;;5054057;28;20410;-42
2023/06/27 13:44:48;;;;;;;3.43;1.87;;;;;;;;;;5053203;28;20876;-42
2023/06/27 13:47:14;;;;;;;2.97;1.57;;;;;;;;;;5053849;28;20514;-42
2023/06/27 13:49:40;;;;;;;4.03;1.80;;;;;;;;;;5053500;28;20855;-43
2023/06/27 13:52:07;;;;;;;4.17;1.80;;;;;;;;;;5054107;28;20462;-43
2023/06/27 13:54:33;;;;;;;5.47;2.30;;;;;;;;;;5053822;28;20834;-42
2023/06/27 13:57:00;;;;;;;9.13;1.60;;;;;;;;;;5053768;28;20437;-42
2023/06/27 13:59:27;;;;;;;3.00;1.80;;;;;;;;;;5053642;28;20420;-45
2023/06/27 14:01:53;;;;;;;4.80;1.80;;;;;;;;;;5053623;28;20412;-43
2023/06/27 14:04:19;;;;;;;4.30;2.10;;;;;;;;;;5053372;28;20426;-43
2023/06/27 14:06:51;;;;;;;2.37;2.00;;;;;;;;;;5053250;28;20461;-43
2023/06/27 14:09:17;;;;;;;2.70;2.30;;;;;;;;;;5053107;28;20814;-42
2023/06/27 14:11:43;;;;;;;5.73;2.10;;;;;;;;;;5053024;28;20488;-43
2023/06/27 14:14:10;;;;;;;3.20;2.13;;;;;;;;;;5053506;28;20544;-43
2023/06/27 14:16:36;;;;;;;1.83;1.73;;;;;;;;;;5052070;28;20984;-42
2023/06/27 14:19:04;;;;;;;2.07;1.87;;;;;;;;;;5053166;28;20494;-43
2023/06/27 14:21:30;;;;;;;3.23;1.80;;;;;;;;;;5053121;28;20413;-43
2023/06/27 14:23:56;;;;;;;5.17;1.80;;;;;;;;;;5053241;28;20424;-43
2023/06/27 14:26:22;;;;;;;2.70;1.77;;;;;;;;;;5053172;28;20492;-43
2023/06/27 14:28:48;;;;;;;1.70;1.60;;;;;;;;;;5053206;28;20495;-43
2023/06/27 14:31:14;;;;;;;2.40;1.60;;;;;;;;;;5052879;28;20397;-46
2023/06/27 14:33:40;;;;;;;6.93;1.80;;;;;;;;;;5052685;28;20405;-48
2023/06/27 14:36:06;;;;;;;2.80;1.53;;;;;;;;;;5052977;28;20452;-42
2023/06/27 14:38:32;;;;;;;1.40;1.30;;;;;;;;;;5052807;28;20508;-43